sensor_id;sensor_type;location;lat;lon;timestamp;P1;durP1;ratioP1;P2;durP2;ratioP2
4569;SDS011;2297;51.442;6.996;2022-12-07T00:01:36;21.08;;;12.57;;
4569;SDS011;2297;51.442;6.996;2022-12-07T00:04:04;19.13;;;11.85;;
4569;SDS011;2297;51.442;6.996;2022-12-07T00:06:32;18.52;;;12.10;;
4569;SDS011;2297;51.442;6.996;2022-12-07T00:09:02;18.67;;;11.25;;
4569;SDS011;2297;51.442;6.996;2022-12-07T00:12:03;21.27;;;12.00;;
4569;SDS011;2297;51.442;6.996;2022-12-07T00:14:31;17.38;;;11.95;;
4569;SDS011;2297;51.442;6.996;2022-12-07T00:17:00;16.15;;;11.35;;
4569;SDS011;2297;51.442;6.996;2022-12-07T00:19:27;19.05;;;11.60;;
4569;SDS011;2297;51.442;6.996;2022-12-07T00:21:53;17.05;;;11.20;;
4569;SDS011;2297;51.442;6.996;2022-12-07T00:24:21;18.58;;;11.43;;
4569;SDS011;2297;51.442;6.996;2022-12-07T00:26:48;20.52;;;13.68;;
4569;SDS011;2297;51.442;6.996;2022-12-07T00:29:16;18.63;;;12.85;;
4569;SDS011;2297;51.442;6.996;2022-12-07T00:31:45;18.65;;;12.45;;
4569;SDS011;2297;51.442;6.996;2022-12-07T00:34:13;21.88;;;13.57;;
4569;SDS011;2297;51.442;6.996;2022-12-07T00:36:41;21.05;;;13.40;;
4569;SDS011;2297;51.442;6.996;2022-12-07T00:39:08;21.08;;;13.98;;
4569;SDS011;2297;51.442;6.996;2022-12-07T00:41:34;22.92;;;14.15;;
4569;SDS011;2297;51.442;6.996;2022-12-07T00:44:01;21.92;;;13.65;;
4569;SDS011;2297;51.442;6.996;2022-12-07T00:46:29;20.98;;;14.57;;
4569;SDS011;2297;51.442;6.996;2022-12-07T00:48:57;22.25;;;13.65;;
4569;SDS011;2297;51.442;6.996;2022-12-07T00:51:24;21.33;;;14.30;;
4569;SDS011;2297;51.442;6.996;2022-12-07T00:53:52;22.60;;;13.95;;
4569;SDS011;2297;51.442;6.996;2022-12-07T00:56:19;23.42;;;15.52;;
4569;SDS011;2297;51.442;6.996;2022-12-07T00:58:51;25.08;;;16.02;;
4569;SDS011;2297;51.442;6.996;2022-12-07T01:01:19;21.20;;;14.30;;
4569;SDS011;2297;51.442;6.996;2022-12-07T01:03:46;23.77;;;14.55;;
4569;SDS011;2297;51.442;6.996;2022-12-07T01:06:15;25.20;;;15.88;;
4569;SDS011;2297;51.442;6.996;2022-12-07T01:08:42;26.75;;;15.07;;
4569;SDS011;2297;51.442;6.996;2022-12-07T01:11:25;27.58;;;16.60;;
4569;SDS011;2297;51.442;6.996;2022-12-07T01:13:54;25.33;;;15.55;;
4569;SDS011;2297;51.442;6.996;2022-12-07T01:19:14;28.10;;;16.58;;
4569;SDS011;2297;51.442;6.996;2022-12-07T01:21:42;32.15;;;17.88;;
4569;SDS011;2297;51.442;6.996;2022-12-07T01:24:09;29.65;;;17.38;;
4569;SDS011;2297;51.442;6.996;2022-12-07T01:26:36;31.52;;;18.85;;
4569;SDS011;2297;51.442;6.996;2022-12-07T01:29:03;36.72;;;20.13;;
4569;SDS011;2297;51.442;6.996;2022-12-07T01:31:30;30.38;;;18.42;;
4569;SDS011;2297;51.442;6.996;2022-12-07T01:33:58;33.10;;;18.75;;
4569;SDS011;2297;51.442;6.996;2022-12-07T01:36:26;33.63;;;19.65;;
4569;SDS011;2297;51.442;6.996;2022-12-07T01:38:56;32.78;;;19.05;;
4569;SDS011;2297;51.442;6.996;2022-12-07T01:41:25;35.22;;;18.60;;
4569;SDS011;2297;51.442;6.996;2022-12-07T01:46:48;34.38;;;18.48;;
4569;SDS011;2297;51.442;6.996;2022-12-07T01:49:17;30.85;;;17.95;;
4569;SDS011;2297;51.442;6.996;2022-12-07T01:51:49;32.33;;;17.98;;
4569;SDS011;2297;51.442;6.996;2022-12-07T01:54:19;30.63;;;17.52;;
4569;SDS011;2297;51.442;6.996;2022-12-07T01:56:49;31.25;;;17.73;;
4569;SDS011;2297;51.442;6.996;2022-12-07T01:59:17;35.97;;;19.08;;
4569;SDS011;2297;51.442;6.996;2022-12-07T02:01:46;31.35;;;18.08;;
4569;SDS011;2297;51.442;6.996;2022-12-07T02:04:12;31.90;;;17.98;;
4569;SDS011;2297;51.442;6.996;2022-12-07T02:06:39;35.63;;;18.77;;
4569;SDS011;2297;51.442;6.996;2022-12-07T02:09:07;37.10;;;18.83;;
4569;SDS011;2297;51.442;6.996;2022-12-07T02:11:35;40.45;;;20.55;;
4569;SDS011;2297;51.442;6.996;2022-12-07T02:14:02;36.67;;;20.10;;
4569;SDS011;2297;51.442;6.996;2022-12-07T02:16:31;34.53;;;19.67;;
4569;SDS011;2297;51.442;6.996;2022-12-07T02:19:12;36.45;;;19.75;;
4569;SDS011;2297;51.442;6.996;2022-12-07T02:22:08;36.35;;;19.48;;
4569;SDS011;2297;51.442;6.996;2022-12-07T02:24:46;38.28;;;19.65;;
4569;SDS011;2297;51.442;6.996;2022-12-07T02:30:13;35.03;;;19.35;;
4569;SDS011;2297;51.442;6.996;2022-12-07T02:32:43;38.45;;;20.27;;
4569;SDS011;2297;51.442;6.996;2022-12-07T02:35:15;41.53;;;20.85;;
4569;SDS011;2297;51.442;6.996;2022-12-07T02:37:48;38.45;;;20.60;;
4569;SDS011;2297;51.442;6.996;2022-12-07T02:40:25;37.03;;;20.77;;
4569;SDS011;2297;51.442;6.996;2022-12-07T02:42:57;39.17;;;19.70;;
4569;SDS011;2297;51.442;6.996;2022-12-07T02:45:29;35.25;;;19.88;;
4569;SDS011;2297;51.442;6.996;2022-12-07T02:47:58;33.60;;;18.88;;
4569;SDS011;2297;51.442;6.996;2022-12-07T02:50:26;35.03;;;18.45;;
4569;SDS011;2297;51.442;6.996;2022-12-07T02:52:53;33.17;;;18.58;;
4569;SDS011;2297;51.442;6.996;2022-12-07T02:55:22;32.30;;;17.52;;
4569;SDS011;2297;51.442;6.996;2022-12-07T02:57:54;28.52;;;16.05;;
4569;SDS011;2297;51.442;6.996;2022-12-07T03:03:13;26.80;;;16.50;;
4569;SDS011;2297;51.442;6.996;2022-12-07T03:05:49;25.63;;;15.55;;
4569;SDS011;2297;51.442;6.996;2022-12-07T03:08:28;26.23;;;16.30;;
4569;SDS011;2297;51.442;6.996;2022-12-07T03:11:03;26.92;;;15.52;;
4569;SDS011;2297;51.442;6.996;2022-12-07T03:13:33;29.75;;;17.60;;
4569;SDS011;2297;51.442;6.996;2022-12-07T03:16:07;31.88;;;17.20;;
4569;SDS011;2297;51.442;6.996;2022-12-07T03:18:38;33.20;;;18.98;;
4569;SDS011;2297;51.442;6.996;2022-12-07T03:21:09;34.75;;;17.17;;
4569;SDS011;2297;51.442;6.996;2022-12-07T03:23:40;32.03;;;17.77;;
4569;SDS011;2297;51.442;6.996;2022-12-07T03:26:10;32.63;;;16.77;;
4569;SDS011;2297;51.442;6.996;2022-12-07T03:28:43;34.30;;;18.23;;
4569;SDS011;2297;51.442;6.996;2022-12-07T03:31:17;33.95;;;17.58;;
4569;SDS011;2297;51.442;6.996;2022-12-07T03:33:49;30.02;;;17.17;;
4569;SDS011;2297;51.442;6.996;2022-12-07T03:36:24;32.22;;;17.73;;
4569;SDS011;2297;51.442;6.996;2022-12-07T03:38:57;33.47;;;18.25;;
4569;SDS011;2297;51.442;6.996;2022-12-07T03:41:31;33.42;;;16.40;;
4569;SDS011;2297;51.442;6.996;2022-12-07T03:44:01;33.92;;;17.02;;
4569;SDS011;2297;51.442;6.996;2022-12-07T03:46:35;27.80;;;15.43;;
4569;SDS011;2297;51.442;6.996;2022-12-07T03:49:11;31.63;;;16.38;;
4569;SDS011;2297;51.442;6.996;2022-12-07T03:51:45;28.02;;;15.25;;
4569;SDS011;2297;51.442;6.996;2022-12-07T03:54:18;30.65;;;16.50;;
4569;SDS011;2297;51.442;6.996;2022-12-07T03:56:49;26.88;;;15.50;;
4569;SDS011;2297;51.442;6.996;2022-12-07T03:59:17;29.20;;;15.68;;
4569;SDS011;2297;51.442;6.996;2022-12-07T04:01:51;34.90;;;16.80;;
4569;SDS011;2297;51.442;6.996;2022-12-07T04:04:19;29.27;;;16.20;;
4569;SDS011;2297;51.442;6.996;2022-12-07T04:06:46;29.30;;;16.15;;
4569;SDS011;2297;51.442;6.996;2022-12-07T04:09:12;28.60;;;15.85;;
4569;SDS011;2297;51.442;6.996;2022-12-07T04:11:40;27.38;;;15.10;;
4569;SDS011;2297;51.442;6.996;2022-12-07T04:14:06;28.35;;;15.68;;
4569;SDS011;2297;51.442;6.996;2022-12-07T04:16:46;29.40;;;15.10;;
4569;SDS011;2297;51.442;6.996;2022-12-07T04:19:14;29.92;;;14.32;;
4569;SDS011;2297;51.442;6.996;2022-12-07T04:21:42;27.80;;;13.57;;
4569;SDS011;2297;51.442;6.996;2022-12-07T04:24:09;31.73;;;15.02;;
4569;SDS011;2297;51.442;6.996;2022-12-07T04:26:37;25.30;;;14.32;;
4569;SDS011;2297;51.442;6.996;2022-12-07T04:31:54;29.88;;;13.90;;
4569;SDS011;2297;51.442;6.996;2022-12-07T04:34:20;22.00;;;12.90;;
4569;SDS011;2297;51.442;6.996;2022-12-07T04:36:47;26.55;;;12.48;;
4569;SDS011;2297;51.442;6.996;2022-12-07T04:39:17;26.02;;;13.15;;
4569;SDS011;2297;51.442;6.996;2022-12-07T04:41:46;19.98;;;12.30;;
4569;SDS011;2297;51.442;6.996;2022-12-07T04:44:14;23.25;;;13.23;;
4569;SDS011;2297;51.442;6.996;2022-12-07T04:46:42;29.42;;;13.75;;
4569;SDS011;2297;51.442;6.996;2022-12-07T04:49:10;25.30;;;12.55;;
4569;SDS011;2297;51.442;6.996;2022-12-07T04:51:38;19.10;;;12.05;;
4569;SDS011;2297;51.442;6.996;2022-12-07T04:54:05;20.50;;;12.15;;
4569;SDS011;2297;51.442;6.996;2022-12-07T04:56:31;22.73;;;12.55;;
4569;SDS011;2297;51.442;6.996;2022-12-07T04:59:00;26.35;;;13.07;;
4569;SDS011;2297;51.442;6.996;2022-12-07T05:01:27;22.35;;;13.00;;
4569;SDS011;2297;51.442;6.996;2022-12-07T05:03:53;21.05;;;11.93;;
4569;SDS011;2297;51.442;6.996;2022-12-07T05:06:21;23.58;;;13.35;;
4569;SDS011;2297;51.442;6.996;2022-12-07T05:08:48;20.92;;;12.77;;
4569;SDS011;2297;51.442;6.996;2022-12-07T05:11:15;23.17;;;11.45;;
4569;SDS011;2297;51.442;6.996;2022-12-07T05:13:55;24.15;;;12.40;;
4569;SDS011;2297;51.442;6.996;2022-12-07T05:16:22;23.40;;;11.45;;
4569;SDS011;2297;51.442;6.996;2022-12-07T05:18:49;19.55;;;11.57;;
4569;SDS011;2297;51.442;6.996;2022-12-07T05:21:15;25.70;;;11.77;;
4569;SDS011;2297;51.442;6.996;2022-12-07T05:23:43;23.65;;;12.77;;
4569;SDS011;2297;51.442;6.996;2022-12-07T05:26:10;25.15;;;12.05;;
4569;SDS011;2297;51.442;6.996;2022-12-07T05:28:37;21.60;;;11.93;;
4569;SDS011;2297;51.442;6.996;2022-12-07T05:31:04;25.10;;;12.27;;
4569;SDS011;2297;51.442;6.996;2022-12-07T05:33:30;23.25;;;11.65;;
4569;SDS011;2297;51.442;6.996;2022-12-07T05:35:57;24.88;;;12.00;;
4569;SDS011;2297;51.442;6.996;2022-12-07T05:38:24;21.13;;;12.70;;
4569;SDS011;2297;51.442;6.996;2022-12-07T05:40:52;20.38;;;12.13;;
4569;SDS011;2297;51.442;6.996;2022-12-07T05:43:18;27.23;;;11.65;;
4569;SDS011;2297;51.442;6.996;2022-12-07T05:45:45;21.42;;;11.13;;
4569;SDS011;2297;51.442;6.996;2022-12-07T05:48:12;20.25;;;11.27;;
4569;SDS011;2297;51.442;6.996;2022-12-07T05:50:38;18.25;;;10.55;;
4569;SDS011;2297;51.442;6.996;2022-12-07T05:53:05;19.60;;;11.43;;
4569;SDS011;2297;51.442;6.996;2022-12-07T05:55:32;19.65;;;10.75;;
4569;SDS011;2297;51.442;6.996;2022-12-07T05:58:00;24.13;;;10.95;;
4569;SDS011;2297;51.442;6.996;2022-12-07T06:00:44;22.48;;;11.25;;
4569;SDS011;2297;51.442;6.996;2022-12-07T06:03:10;20.30;;;10.63;;
4569;SDS011;2297;51.442;6.996;2022-12-07T06:05:37;17.83;;;10.63;;
4569;SDS011;2297;51.442;6.996;2022-12-07T06:08:04;19.65;;;10.55;;
4569;SDS011;2297;51.442;6.996;2022-12-07T06:10:30;22.55;;;12.07;;
4569;SDS011;2297;51.442;6.996;2022-12-07T06:12:57;18.42;;;10.20;;
4569;SDS011;2297;51.442;6.996;2022-12-07T06:15:24;23.55;;;10.70;;
4569;SDS011;2297;51.442;6.996;2022-12-07T06:20:58;23.17;;;10.13;;
4569;SDS011;2297;51.442;6.996;2022-12-07T06:23:25;19.30;;;10.43;;
4569;SDS011;2297;51.442;6.996;2022-12-07T06:25:52;17.48;;;9.63;;
4569;SDS011;2297;51.442;6.996;2022-12-07T06:28:18;19.38;;;10.38;;
4569;SDS011;2297;51.442;6.996;2022-12-07T06:30:46;19.75;;;10.02;;
4569;SDS011;2297;51.442;6.996;2022-12-07T06:33:13;16.83;;;9.40;;
4569;SDS011;2297;51.442;6.996;2022-12-07T06:35:39;19.00;;;9.80;;
4569;SDS011;2297;51.442;6.996;2022-12-07T06:38:07;19.75;;;10.57;;
4569;SDS011;2297;51.442;6.996;2022-12-07T06:40:33;17.42;;;9.25;;
4569;SDS011;2297;51.442;6.996;2022-12-07T06:43:00;17.83;;;9.43;;
4569;SDS011;2297;51.442;6.996;2022-12-07T06:45:27;18.10;;;9.90;;
4569;SDS011;2297;51.442;6.996;2022-12-07T06:47:55;18.92;;;9.60;;
4569;SDS011;2297;51.442;6.996;2022-12-07T06:50:21;19.08;;;10.10;;
4569;SDS011;2297;51.442;6.996;2022-12-07T06:52:48;22.70;;;10.50;;
4569;SDS011;2297;51.442;6.996;2022-12-07T06:55:15;15.57;;;9.88;;
4569;SDS011;2297;51.442;6.996;2022-12-07T06:57:41;20.42;;;9.48;;
4569;SDS011;2297;51.442;6.996;2022-12-07T07:00:08;20.90;;;9.98;;
4569;SDS011;2297;51.442;6.996;2022-12-07T07:02:36;37.47;;;16.83;;
4569;SDS011;2297;51.442;6.996;2022-12-07T07:05:04;20.52;;;9.00;;
4569;SDS011;2297;51.442;6.996;2022-12-07T07:07:31;19.95;;;9.40;;
4569;SDS011;2297;51.442;6.996;2022-12-07T07:09:57;19.90;;;9.38;;
4569;SDS011;2297;51.442;6.996;2022-12-07T07:12:24;18.60;;;10.05;;
4569;SDS011;2297;51.442;6.996;2022-12-07T07:14:50;20.20;;;10.25;;
4569;SDS011;2297;51.442;6.996;2022-12-07T07:17:17;19.13;;;9.20;;
4569;SDS011;2297;51.442;6.996;2022-12-07T07:19:44;17.38;;;9.30;;
4569;SDS011;2297;51.442;6.996;2022-12-07T07:22:12;20.17;;;9.15;;
4569;SDS011;2297;51.442;6.996;2022-12-07T07:24:38;19.67;;;9.43;;
4569;SDS011;2297;51.442;6.996;2022-12-07T07:27:05;17.27;;;9.98;;
4569;SDS011;2297;51.442;6.996;2022-12-07T07:29:32;15.20;;;9.35;;
4569;SDS011;2297;51.442;6.996;2022-12-07T07:31:59;16.48;;;8.93;;
4569;SDS011;2297;51.442;6.996;2022-12-07T07:34:26;23.38;;;9.85;;
4569;SDS011;2297;51.442;6.996;2022-12-07T07:36:52;15.40;;;8.90;;
4569;SDS011;2297;51.442;6.996;2022-12-07T07:39:20;18.88;;;9.07;;
4569;SDS011;2297;51.442;6.996;2022-12-07T07:41:47;15.02;;;8.48;;
4569;SDS011;2297;51.442;6.996;2022-12-07T07:44:14;14.93;;;8.65;;
4569;SDS011;2297;51.442;6.996;2022-12-07T07:46:49;17.42;;;9.10;;
4569;SDS011;2297;51.442;6.996;2022-12-07T07:49:16;19.17;;;8.82;;
4569;SDS011;2297;51.442;6.996;2022-12-07T07:51:42;18.10;;;8.88;;
4569;SDS011;2297;51.442;6.996;2022-12-07T07:54:14;16.27;;;8.77;;
4569;SDS011;2297;51.442;6.996;2022-12-07T08:00:06;16.27;;;9.73;;
4569;SDS011;2297;51.442;6.996;2022-12-07T08:02:35;15.57;;;9.32;;
4569;SDS011;2297;51.442;6.996;2022-12-07T08:05:02;17.55;;;9.23;;
4569;SDS011;2297;51.442;6.996;2022-12-07T08:07:29;17.10;;;8.35;;
4569;SDS011;2297;51.442;6.996;2022-12-07T08:09:55;18.73;;;8.60;;
4569;SDS011;2297;51.442;6.996;2022-12-07T08:12:22;15.45;;;9.02;;
4569;SDS011;2297;51.442;6.996;2022-12-07T08:14:48;16.65;;;9.63;;
4569;SDS011;2297;51.442;6.996;2022-12-07T08:17:16;18.60;;;8.80;;
4569;SDS011;2297;51.442;6.996;2022-12-07T08:19:43;18.80;;;8.82;;
4569;SDS011;2297;51.442;6.996;2022-12-07T08:22:09;17.95;;;8.65;;
4569;SDS011;2297;51.442;6.996;2022-12-07T08:24:36;16.27;;;8.35;;
4569;SDS011;2297;51.442;6.996;2022-12-07T08:27:03;15.05;;;8.75;;
4569;SDS011;2297;51.442;6.996;2022-12-07T08:29:30;13.88;;;8.13;;
4569;SDS011;2297;51.442;6.996;2022-12-07T08:31:57;23.20;;;8.68;;
4569;SDS011;2297;51.442;6.996;2022-12-07T08:34:27;13.52;;;8.80;;
4569;SDS011;2297;51.442;6.996;2022-12-07T08:36:53;15.23;;;8.73;;
4569;SDS011;2297;51.442;6.996;2022-12-07T08:39:20;13.90;;;8.57;;
4569;SDS011;2297;51.442;6.996;2022-12-07T08:41:47;17.58;;;8.95;;
4569;SDS011;2297;51.442;6.996;2022-12-07T08:44:13;16.58;;;8.63;;
4569;SDS011;2297;51.442;6.996;2022-12-07T08:46:40;16.48;;;9.18;;
4569;SDS011;2297;51.442;6.996;2022-12-07T08:49:13;16.13;;;8.82;;
4569;SDS011;2297;51.442;6.996;2022-12-07T08:51:44;15.02;;;8.50;;
4569;SDS011;2297;51.442;6.996;2022-12-07T08:54:11;18.58;;;8.68;;
4569;SDS011;2297;51.442;6.996;2022-12-07T08:56:40;15.70;;;8.18;;
4569;SDS011;2297;51.442;6.996;2022-12-07T08:59:08;19.65;;;9.07;;
4569;SDS011;2297;51.442;6.996;2022-12-07T09:01:35;14.52;;;8.88;;
4569;SDS011;2297;51.442;6.996;2022-12-07T09:04:01;15.20;;;7.80;;
4569;SDS011;2297;51.442;6.996;2022-12-07T09:06:28;16.00;;;8.52;;
4569;SDS011;2297;51.442;6.996;2022-12-07T09:08:57;15.43;;;8.45;;
4569;SDS011;2297;51.442;6.996;2022-12-07T09:11:25;14.38;;;8.75;;
4569;SDS011;2297;51.442;6.996;2022-12-07T09:13:52;19.42;;;8.55;;
4569;SDS011;2297;51.442;6.996;2022-12-07T09:16:19;18.95;;;7.93;;
4569;SDS011;2297;51.442;6.996;2022-12-07T09:18:45;17.05;;;9.07;;
4569;SDS011;2297;51.442;6.996;2022-12-07T09:21:12;15.55;;;7.93;;
4569;SDS011;2297;51.442;6.996;2022-12-07T09:23:39;16.38;;;8.35;;
4569;SDS011;2297;51.442;6.996;2022-12-07T09:26:09;16.90;;;8.90;;
4569;SDS011;2297;51.442;6.996;2022-12-07T09:28:36;15.57;;;8.95;;
4569;SDS011;2297;51.442;6.996;2022-12-07T09:31:02;20.65;;;9.07;;
4569;SDS011;2297;51.442;6.996;2022-12-07T09:33:35;18.10;;;9.05;;
4569;SDS011;2297;51.442;6.996;2022-12-07T09:36:03;19.13;;;9.45;;
4569;SDS011;2297;51.442;6.996;2022-12-07T09:38:30;18.95;;;9.43;;
4569;SDS011;2297;51.442;6.996;2022-12-07T09:40:57;15.65;;;8.68;;
4569;SDS011;2297;51.442;6.996;2022-12-07T09:43:33;14.38;;;8.20;;
4569;SDS011;2297;51.442;6.996;2022-12-07T09:46:02;15.65;;;8.05;;
4569;SDS011;2297;51.442;6.996;2022-12-07T09:48:30;16.33;;;8.25;;
4569;SDS011;2297;51.442;6.996;2022-12-07T09:51:00;20.50;;;8.50;;
4569;SDS011;2297;51.442;6.996;2022-12-07T09:53:30;12.65;;;7.72;;
4569;SDS011;2297;51.442;6.996;2022-12-07T09:56:02;16.38;;;8.45;;
4569;SDS011;2297;51.442;6.996;2022-12-07T09:58:29;16.65;;;7.22;;
4569;SDS011;2297;51.442;6.996;2022-12-07T10:01:00;17.80;;;7.53;;
4569;SDS011;2297;51.442;6.996;2022-12-07T10:03:45;17.90;;;7.60;;
4569;SDS011;2297;51.442;6.996;2022-12-07T10:06:16;17.83;;;7.97;;
4569;SDS011;2297;51.442;6.996;2022-12-07T10:08:43;15.85;;;8.25;;
4569;SDS011;2297;51.442;6.996;2022-12-07T10:11:10;16.65;;;7.40;;
4569;SDS011;2297;51.442;6.996;2022-12-07T10:13:40;11.20;;;6.78;;
4569;SDS011;2297;51.442;6.996;2022-12-07T10:16:25;15.30;;;6.82;;
4569;SDS011;2297;51.442;6.996;2022-12-07T10:18:57;14.18;;;7.00;;
4569;SDS011;2297;51.442;6.996;2022-12-07T10:21:48;13.10;;;6.88;;
4569;SDS011;2297;51.442;6.996;2022-12-07T10:24:27;15.18;;;7.22;;
4569;SDS011;2297;51.442;6.996;2022-12-07T10:26:53;12.40;;;7.30;;
4569;SDS011;2297;51.442;6.996;2022-12-07T10:29:21;15.68;;;7.18;;
4569;SDS011;2297;51.442;6.996;2022-12-07T10:31:51;14.48;;;6.45;;
4569;SDS011;2297;51.442;6.996;2022-12-07T10:34:25;14.35;;;6.50;;
4569;SDS011;2297;51.442;6.996;2022-12-07T10:37:06;14.13;;;6.00;;
4569;SDS011;2297;51.442;6.996;2022-12-07T10:42:13;12.25;;;5.90;;
4569;SDS011;2297;51.442;6.996;2022-12-07T10:44:43;27.67;;;10.40;;
4569;SDS011;2297;51.442;6.996;2022-12-07T10:47:22;13.60;;;6.07;;
4569;SDS011;2297;51.442;6.996;2022-12-07T10:50:02;15.20;;;6.35;;
4569;SDS011;2297;51.442;6.996;2022-12-07T10:55:56;10.13;;;5.50;;
4569;SDS011;2297;51.442;6.996;2022-12-07T10:58:45;11.15;;;5.95;;
4569;SDS011;2297;51.442;6.996;2022-12-07T11:01:25;16.50;;;6.60;;
4569;SDS011;2297;51.442;6.996;2022-12-07T11:04:16;14.80;;;5.97;;
4569;SDS011;2297;51.442;6.996;2022-12-07T11:06:50;16.23;;;5.82;;
4569;SDS011;2297;51.442;6.996;2022-12-07T11:09:28;11.90;;;5.60;;
4569;SDS011;2297;51.442;6.996;2022-12-07T11:12:18;15.63;;;5.97;;
4569;SDS011;2297;51.442;6.996;2022-12-07T11:14:54;14.80;;;5.63;;
4569;SDS011;2297;51.442;6.996;2022-12-07T11:17:31;12.02;;;5.53;;
4569;SDS011;2297;51.442;6.996;2022-12-07T11:20:11;10.52;;;5.20;;
4569;SDS011;2297;51.442;6.996;2022-12-07T11:22:47;12.60;;;5.70;;
4569;SDS011;2297;51.442;6.996;2022-12-07T11:25:23;14.00;;;5.43;;
4569;SDS011;2297;51.442;6.996;2022-12-07T11:27:59;13.60;;;5.32;;
4569;SDS011;2297;51.442;6.996;2022-12-07T11:30:37;13.18;;;5.60;;
4569;SDS011;2297;51.442;6.996;2022-12-07T11:33:14;14.77;;;5.90;;
4569;SDS011;2297;51.442;6.996;2022-12-07T11:35:49;18.88;;;6.10;;
4569;SDS011;2297;51.442;6.996;2022-12-07T11:38:24;13.55;;;6.13;;
4569;SDS011;2297;51.442;6.996;2022-12-07T11:41:03;11.75;;;5.85;;
4569;SDS011;2297;51.442;6.996;2022-12-07T11:43:52;15.35;;;6.78;;
4569;SDS011;2297;51.442;6.996;2022-12-07T11:46:23;15.63;;;6.57;;
4569;SDS011;2297;51.442;6.996;2022-12-07T11:48:53;17.98;;;7.60;;
4569;SDS011;2297;51.442;6.996;2022-12-07T11:51:26;14.23;;;6.22;;
4569;SDS011;2297;51.442;6.996;2022-12-07T11:54:00;13.65;;;6.00;;
4569;SDS011;2297;51.442;6.996;2022-12-07T11:56:37;14.02;;;6.00;;
4569;SDS011;2297;51.442;6.996;2022-12-07T11:59:07;14.68;;;5.25;;
4569;SDS011;2297;51.442;6.996;2022-12-07T12:01:42;12.60;;;5.03;;
4569;SDS011;2297;51.442;6.996;2022-12-07T12:07:26;19.95;;;6.75;;
4569;SDS011;2297;51.442;6.996;2022-12-07T12:09:55;12.63;;;5.18;;
4569;SDS011;2297;51.442;6.996;2022-12-07T12:12:43;9.02;;;4.88;;
4569;SDS011;2297;51.442;6.996;2022-12-07T12:15:32;11.05;;;4.55;;
4569;SDS011;2297;51.442;6.996;2022-12-07T12:18:17;6.63;;;3.85;;
4569;SDS011;2297;51.442;6.996;2022-12-07T12:20:54;12.32;;;4.53;;
4569;SDS011;2297;51.442;6.996;2022-12-07T12:23:27;11.70;;;4.50;;
4569;SDS011;2297;51.442;6.996;2022-12-07T12:26:02;9.55;;;4.30;;
4569;SDS011;2297;51.442;6.996;2022-12-07T12:28:32;14.20;;;4.97;;
4569;SDS011;2297;51.442;6.996;2022-12-07T12:31:06;7.80;;;3.45;;
4569;SDS011;2297;51.442;6.996;2022-12-07T12:33:37;9.68;;;3.78;;
4569;SDS011;2297;51.442;6.996;2022-12-07T12:55:12;10.30;;;3.92;;
4569;SDS011;2297;51.442;6.996;2022-12-07T12:57:43;10.90;;;4.05;;
4569;SDS011;2297;51.442;6.996;2022-12-07T13:02:47;14.50;;;4.80;;
4569;SDS011;2297;51.442;6.996;2022-12-07T13:05:18;7.90;;;4.45;;
4569;SDS011;2297;51.442;6.996;2022-12-07T13:10:40;9.70;;;4.97;;
4569;SDS011;2297;51.442;6.996;2022-12-07T13:27:34;7.55;;;3.97;;
4569;SDS011;2297;51.442;6.996;2022-12-07T13:30:06;8.77;;;4.38;;
4569;SDS011;2297;51.442;6.996;2022-12-07T13:32:39;9.35;;;3.58;;
4569;SDS011;2297;51.442;6.996;2022-12-07T13:37:55;10.43;;;3.78;;
4569;SDS011;2297;51.442;6.996;2022-12-07T13:40:22;8.25;;;3.97;;
4569;SDS011;2297;51.442;6.996;2022-12-07T13:42:57;11.48;;;4.03;;
4569;SDS011;2297;51.442;6.996;2022-12-07T13:45:25;6.70;;;3.78;;
4569;SDS011;2297;51.442;6.996;2022-12-07T13:48:14;7.53;;;3.92;;
4569;SDS011;2297;51.442;6.996;2022-12-07T13:50:52;8.68;;;4.13;;
4569;SDS011;2297;51.442;6.996;2022-12-07T13:53:21;12.00;;;3.67;;
4569;SDS011;2297;51.442;6.996;2022-12-07T13:55:51;12.52;;;4.22;;
4569;SDS011;2297;51.442;6.996;2022-12-07T13:58:18;8.85;;;3.65;;
4569;SDS011;2297;51.442;6.996;2022-12-07T14:00:45;11.25;;;3.80;;
4569;SDS011;2297;51.442;6.996;2022-12-07T14:06:13;8.43;;;3.90;;
4569;SDS011;2297;51.442;6.996;2022-12-07T14:09:06;10.38;;;4.13;;
4569;SDS011;2297;51.442;6.996;2022-12-07T14:11:34;8.48;;;4.80;;
4569;SDS011;2297;51.442;6.996;2022-12-07T14:14:01;6.03;;;3.50;;
4569;SDS011;2297;51.442;6.996;2022-12-07T14:16:30;8.40;;;3.90;;
4569;SDS011;2297;51.442;6.996;2022-12-07T14:19:00;8.25;;;4.05;;
4569;SDS011;2297;51.442;6.996;2022-12-07T14:21:29;8.85;;;3.35;;
4569;SDS011;2297;51.442;6.996;2022-12-07T14:24:12;10.30;;;3.75;;
4569;SDS011;2297;51.442;6.996;2022-12-07T14:26:43;8.10;;;4.00;;
4569;SDS011;2297;51.442;6.996;2022-12-07T14:29:20;7.68;;;4.00;;
4569;SDS011;2297;51.442;6.996;2022-12-07T14:31:58;9.80;;;4.00;;
4569;SDS011;2297;51.442;6.996;2022-12-07T14:34:40;9.00;;;4.50;;
4569;SDS011;2297;51.442;6.996;2022-12-07T14:37:07;6.22;;;3.80;;
4569;SDS011;2297;51.442;6.996;2022-12-07T14:39:37;9.85;;;4.45;;
4569;SDS011;2297;51.442;6.996;2022-12-07T14:42:03;9.75;;;6.07;;
4569;SDS011;2297;51.442;6.996;2022-12-07T14:47:25;7.95;;;4.43;;
4569;SDS011;2297;51.442;6.996;2022-12-07T14:49:52;8.73;;;3.95;;
4569;SDS011;2297;51.442;6.996;2022-12-07T14:52:19;6.68;;;3.80;;
4569;SDS011;2297;51.442;6.996;2022-12-07T14:54:50;9.00;;;4.53;;
4569;SDS011;2297;51.442;6.996;2022-12-07T14:57:16;10.52;;;4.15;;
4569;SDS011;2297;51.442;6.996;2022-12-07T14:59:43;10.73;;;4.32;;
4569;SDS011;2297;51.442;6.996;2022-12-07T15:02:10;6.30;;;3.90;;
4569;SDS011;2297;51.442;6.996;2022-12-07T15:04:38;6.78;;;3.80;;
4569;SDS011;2297;51.442;6.996;2022-12-07T15:07:05;15.10;;;5.53;;
4569;SDS011;2297;51.442;6.996;2022-12-07T15:09:39;11.57;;;4.40;;
4569;SDS011;2297;51.442;6.996;2022-12-07T15:12:07;9.32;;;4.40;;
4569;SDS011;2297;51.442;6.996;2022-12-07T15:14:33;13.60;;;5.13;;
4569;SDS011;2297;51.442;6.996;2022-12-07T15:17:00;9.68;;;4.40;;
4569;SDS011;2297;51.442;6.996;2022-12-07T15:19:26;12.15;;;3.83;;
4569;SDS011;2297;51.442;6.996;2022-12-07T15:21:53;10.77;;;4.03;;
4569;SDS011;2297;51.442;6.996;2022-12-07T15:24:20;10.55;;;4.45;;
4569;SDS011;2297;51.442;6.996;2022-12-07T15:26:49;10.45;;;3.72;;
4569;SDS011;2297;51.442;6.996;2022-12-07T15:29:22;11.75;;;4.82;;
4569;SDS011;2297;51.442;6.996;2022-12-07T15:31:49;9.20;;;3.88;;
4569;SDS011;2297;51.442;6.996;2022-12-07T15:34:15;10.95;;;3.90;;
4569;SDS011;2297;51.442;6.996;2022-12-07T15:36:42;16.38;;;5.97;;
4569;SDS011;2297;51.442;6.996;2022-12-07T15:39:09;14.82;;;5.30;;
4569;SDS011;2297;51.442;6.996;2022-12-07T15:41:36;11.30;;;4.70;;
4569;SDS011;2297;51.442;6.996;2022-12-07T15:44:03;9.95;;;3.90;;
4569;SDS011;2297;51.442;6.996;2022-12-07T15:46:49;9.02;;;3.70;;
4569;SDS011;2297;51.442;6.996;2022-12-07T15:49:16;10.45;;;4.25;;
4569;SDS011;2297;51.442;6.996;2022-12-07T15:51:44;8.48;;;4.00;;
4569;SDS011;2297;51.442;6.996;2022-12-07T15:54:12;8.57;;;4.43;;
4569;SDS011;2297;51.442;6.996;2022-12-07T15:56:42;12.57;;;4.03;;
4569;SDS011;2297;51.442;6.996;2022-12-07T15:59:08;15.00;;;4.63;;
4569;SDS011;2297;51.442;6.996;2022-12-07T16:01:35;11.98;;;3.67;;
4569;SDS011;2297;51.442;6.996;2022-12-07T16:04:03;12.80;;;4.47;;
4569;SDS011;2297;51.442;6.996;2022-12-07T16:06:30;10.50;;;5.10;;
4569;SDS011;2297;51.442;6.996;2022-12-07T16:08:57;15.70;;;4.35;;
4569;SDS011;2297;51.442;6.996;2022-12-07T16:11:23;11.10;;;4.28;;
4569;SDS011;2297;51.442;6.996;2022-12-07T16:13:50;53.72;;;20.45;;
4569;SDS011;2297;51.442;6.996;2022-12-07T16:16:17;22.60;;;9.32;;
4569;SDS011;2297;51.442;6.996;2022-12-07T16:18:47;13.30;;;4.90;;
4569;SDS011;2297;51.442;6.996;2022-12-07T16:21:15;10.10;;;5.05;;
4569;SDS011;2297;51.442;6.996;2022-12-07T16:23:43;9.43;;;4.30;;
4569;SDS011;2297;51.442;6.996;2022-12-07T16:26:10;11.52;;;4.65;;
4569;SDS011;2297;51.442;6.996;2022-12-07T16:28:39;9.00;;;4.85;;
4569;SDS011;2297;51.442;6.996;2022-12-07T16:31:06;13.27;;;4.80;;
4569;SDS011;2297;51.442;6.996;2022-12-07T16:33:34;9.88;;;4.97;;